Hauptseite
METAR-TAF:

METAR-TAF

Flughäfen :

Flughafen Ouagadougou

Ouagadougou, Burkina Faso

Breite: 12-21N, Länge: 001-31W, Höhe: 316 m

Beobachtung

Neuester Wetterbericht von vor 1 Stunde und 15 Minuten, um 10:00 UTC
Wind 7 kt aus Nord/Nordost, variierte zwischen Nord und Nordost
Temperatur 27°C
Luftfeuchtigkeit 8%
Luftdruck 1016 hPa
Sichtweite 10 km oder mehr
keine Wolken unter 1500 m und keine Kumulonimbus oder Gewitterwolken

METAR: DFFD 221000Z 02007KT 350V050 CAVOK 27/M10 Q1016 NOSIG

Zeit: 11:15 (11:15 UTC)

Prognose

Neuester Wetterbericht von vor 6 Stunden und 15 Minuten, um 05:00 UTC
Gültige Prognose vom 22 um 06 UTC bis 23 um 12 UTC
Wind 8 kt aus Nordost
Sichtweite 10 km oder mehr
keine Wolken unter 1500 m und keine Kumulonimbus oder Gewitterwolken

TAF: DFFD 220500Z 2206/2312 04008KT CAVOK

Wetterbeobachtungen und Prognosen von mehr als 4000 Flughäfen (METAR und TAF Bericht).

Die verfügbaren Stationen werden durch gelbe und rote Markierungen auf der Karte dargestellt.

Führen Sie die Maus auf sie, um den Namen der Station zu sehen.

Darauf klicken, um die Beobachtung von Wetterbeobachtungen und Prognosen zu sehen.

Um die Karte zu ändern : klicken Sie auf den grünen Tasten mit einem schwarzen Kreuz Zum Vergrößern, auf den grünen Button mit einem Gedankenstrich zu verkleinern, oder auf die grünen Pfeile für benachbarte Karten.


METAR-TAF: